createdAt,value
2017-03-11T00:00:18.531Z,21.57
2017-03-11T00:00:59.198Z,21.6
2017-03-11T00:01:39.835Z,21.57
2017-03-11T00:02:20.487Z,21.56
2017-03-11T00:03:01.134Z,21.59
2017-03-11T00:03:41.766Z,21.63
2017-03-11T00:04:22.404Z,21.57
2017-03-11T00:05:03.026Z,21.57
2017-03-11T00:05:43.678Z,21.63
2017-03-11T00:06:24.302Z,21.56
2017-03-11T00:07:04.928Z,21.56
2017-03-11T00:07:45.564Z,21.5
2017-03-11T00:08:26.201Z,21.57
2017-03-11T00:09:06.829Z,21.53
2017-03-11T00:09:47.466Z,21.59
2017-03-11T00:10:28.111Z,21.56
2017-03-11T00:11:08.760Z,21.48
2017-03-11T00:11:49.400Z,21.59
2017-03-11T00:12:30.032Z,21.45
2017-03-11T00:13:10.662Z,21.51
2017-03-11T00:13:51.314Z,21.56
2017-03-11T00:14:32.013Z,21.51
2017-03-11T00:15:12.678Z,21.56
2017-03-11T00:15:53.399Z,21.57
2017-03-11T00:16:34.033Z,21.53
2017-03-11T00:17:14.698Z,21.5
2017-03-11T00:17:55.379Z,21.59
2017-03-11T00:18:36.023Z,21.57
2017-03-11T00:19:16.679Z,21.56
2017-03-11T00:19:57.332Z,21.53
2017-03-11T00:20:37.971Z,21.54
2017-03-11T00:21:18.600Z,21.56
2017-03-11T00:21:59.227Z,21.53
2017-03-11T00:22:39.924Z,21.63
2017-03-11T00:23:20.570Z,21.56
2017-03-11T00:24:01.210Z,21.51
2017-03-11T00:24:41.837Z,21.59
2017-03-11T00:25:22.464Z,21.61
2017-03-11T00:26:03.105Z,21.61
2017-03-11T00:26:43.778Z,21.59
2017-03-11T00:27:24.404Z,21.5
2017-03-11T00:28:05.055Z,21.54
2017-03-11T00:28:45.752Z,21.56
2017-03-11T00:29:26.379Z,21.56
2017-03-11T00:30:07.015Z,21.54
2017-03-11T00:30:47.651Z,21.56
2017-03-11T00:31:28.292Z,21.48
2017-03-11T00:32:08.927Z,21.6
2017-03-11T00:32:49.727Z,21.57
2017-03-11T00:33:30.405Z,21.61
2017-03-11T00:34:11.042Z,21.61
2017-03-11T00:34:51.679Z,21.6
2017-03-11T00:35:32.306Z,21.57
2017-03-11T00:36:12.934Z,21.59
2017-03-11T00:36:53.625Z,21.54
2017-03-11T00:37:34.242Z,21.56
2017-03-11T00:38:14.878Z,21.6
2017-03-11T00:38:55.519Z,21.51
2017-03-11T00:39:36.259Z,21.51
2017-03-11T00:40:16.891Z,21.6
2017-03-11T00:40:57.515Z,21.51
2017-03-11T00:41:38.157Z,21.59
2017-03-11T00:42:18.793Z,21.56
2017-03-11T00:42:59.447Z,21.57
2017-03-11T00:43:40.088Z,21.56
2017-03-11T00:44:20.720Z,21.63
2017-03-11T00:45:01.432Z,21.56
2017-03-11T00:45:42.109Z,21.56
2017-03-11T00:46:22.723Z,21.6
2017-03-11T00:47:03.356Z,21.64
2017-03-11T00:47:44.104Z,21.53
2017-03-11T00:48:24.778Z,21.56
2017-03-11T00:49:05.416Z,21.5
2017-03-11T00:49:46.048Z,21.48
2017-03-11T00:50:26.682Z,21.41
2017-03-11T00:51:07.317Z,21.56
2017-03-11T00:51:48.043Z,21.41
2017-03-11T00:52:28.684Z,21.44
2017-03-11T00:53:09.333Z,21.44
2017-03-11T00:53:49.966Z,21.45
2017-03-11T00:54:30.649Z,21.45
2017-03-11T00:55:11.293Z,21.42
2017-03-11T00:55:51.948Z,21.45
2017-03-11T00:56:32.578Z,21.48
2017-03-11T00:57:13.207Z,21.54
2017-03-11T00:57:53.972Z,21.41
2017-03-11T00:58:34.619Z,21.5
2017-03-11T00:59:15.264Z,21.59
2017-03-11T00:59:55.892Z,21.41
2017-03-11T01:00:36.517Z,21.48
2017-03-11T01:01:17.203Z,21.45
2017-03-11T01:01:57.786Z,21.51
2017-03-11T01:02:38.445Z,21.51
2017-03-11T01:03:19.072Z,21.54
2017-03-11T01:03:59.700Z,21.36
2017-03-11T01:04:40.351Z,21.44
2017-03-11T01:05:21.100Z,21.54
2017-03-11T01:06:01.918Z,21.59
2017-03-11T01:06:42.460Z,21.48
2017-03-11T01:07:23.175Z,21.45
2017-03-11T01:08:03.815Z,21.45
2017-03-11T01:08:44.457Z,21.45
2017-03-11T01:09:25.083Z,21.42
2017-03-11T01:10:05.722Z,21.44
2017-03-11T01:10:46.380Z,21.51
2017-03-11T01:11:27.056Z,21.48
2017-03-11T01:12:07.687Z,21.48
2017-03-11T01:12:48.326Z,21.44
2017-03-11T01:13:28.953Z,21.45
2017-03-11T01:14:09.581Z,21.41
2017-03-11T01:14:50.209Z,21.44
2017-03-11T01:15:30.912Z,21.41
2017-03-11T01:16:11.548Z,21.41
2017-03-11T01:16:52.189Z,21.44
2017-03-11T01:17:32.825Z,21.42
2017-03-11T01:18:13.480Z,21.48
2017-03-11T01:18:54.073Z,21.53
2017-03-11T01:19:34.817Z,21.45
2017-03-11T01:20:15.456Z,21.48
2017-03-11T01:20:56.078Z,21.41
2017-03-11T01:21:36.732Z,21.48
2017-03-11T01:22:17.369Z,21.45
2017-03-11T01:22:58.008Z,21.45
2017-03-11T01:23:38.699Z,21.45
2017-03-11T01:24:19.338Z,21.42
2017-03-11T01:24:59.971Z,21.45
2017-03-11T01:25:40.616Z,21.53
2017-03-11T01:26:21.282Z,21.44
2017-03-11T01:27:01.945Z,21.48
2017-03-11T01:27:42.605Z,21.51
2017-03-11T01:28:23.250Z,21.39
2017-03-11T01:29:03.896Z,21.57
2017-03-11T01:29:44.517Z,21.53
2017-03-11T01:30:25.205Z,21.44
2017-03-11T01:31:05.854Z,21.53
2017-03-11T01:31:46.467Z,21.45
2017-03-11T01:32:27.112Z,21.42
2017-03-11T01:33:07.777Z,21.41
2017-03-11T01:33:48.431Z,21.42
2017-03-11T01:34:29.068Z,21.53
2017-03-11T01:35:09.697Z,21.53
2017-03-11T01:35:50.329Z,21.42
2017-03-11T01:36:30.951Z,21.39
2017-03-11T01:37:11.578Z,21.41
2017-03-11T01:37:52.236Z,21.45
2017-03-11T01:38:32.900Z,21.42
2017-03-11T01:39:13.533Z,21.51
2017-03-11T01:39:54.172Z,21.36
2017-03-11T01:40:34.810Z,21.45
2017-03-11T01:41:15.458Z,21.41
2017-03-11T01:41:56.120Z,21.5
2017-03-11T01:42:36.766Z,21.44
2017-03-11T01:43:17.411Z,21.46
2017-03-11T01:43:58.036Z,21.42
2017-03-11T01:44:38.672Z,21.42
2017-03-11T01:45:19.338Z,21.44
2017-03-11T01:45:59.973Z,21.44
2017-03-11T01:46:40.595Z,21.44
2017-03-11T01:47:21.234Z,21.48
2017-03-11T01:48:01.883Z,21.45
2017-03-11T01:48:42.513Z,21.45
2017-03-11T01:49:23.146Z,21.48
2017-03-11T01:50:03.859Z,21.42
2017-03-11T01:50:44.492Z,21.46
2017-03-11T01:51:25.117Z,21.48
2017-03-11T01:52:05.771Z,21.44
2017-03-11T01:52:46.417Z,21.45
2017-03-11T01:53:27.078Z,21.44
2017-03-11T01:54:07.769Z,21.44
2017-03-11T01:54:48.413Z,21.45
2017-03-11T01:55:29.037Z,21.45
2017-03-11T01:56:09.672Z,21.41
2017-03-11T01:56:50.317Z,21.44
2017-03-11T01:57:30.958Z,21.44
2017-03-11T01:58:11.622Z,21.44
2017-03-11T01:58:52.276Z,21.42
2017-03-11T01:59:32.972Z,21.42
2017-03-11T02:00:13.602Z,21.41
2017-03-11T02:00:54.231Z,21.44
2017-03-11T02:01:34.852Z,21.45
2017-03-11T02:02:15.496Z,21.46
2017-03-11T02:02:56.155Z,21.42
2017-03-11T02:03:36.846Z,21.5
2017-03-11T02:04:17.476Z,21.46
2017-03-11T02:04:58.110Z,21.45
2017-03-11T02:05:38.762Z,21.46
2017-03-11T02:06:19.418Z,21.44
2017-03-11T02:07:00.060Z,21.48
2017-03-11T02:07:40.759Z,21.44
2017-03-11T02:08:21.379Z,21.46
2017-03-11T02:09:02.067Z,21.46
2017-03-11T02:09:42.697Z,21.51
2017-03-11T02:10:23.326Z,21.44
2017-03-11T02:11:03.985Z,21.51
2017-03-11T02:11:44.644Z,21.42
2017-03-11T02:12:25.299Z,21.42
2017-03-11T02:13:05.931Z,21.5
2017-03-11T02:13:46.599Z,21.57
2017-03-11T02:14:27.257Z,21.44
2017-03-11T02:15:07.906Z,21.42
2017-03-11T02:15:48.547Z,21.44
2017-03-11T02:16:29.176Z,21.41
2017-03-11T02:17:09.800Z,21.44
2017-03-11T02:17:50.428Z,21.5
2017-03-11T02:18:31.157Z,21.39
2017-03-11T02:19:11.783Z,21.45
2017-03-11T02:19:52.427Z,21.51
2017-03-11T02:20:33.049Z,21.44
2017-03-11T02:21:13.694Z,21.42
2017-03-11T02:21:54.328Z,21.48
2017-03-11T02:22:35.011Z,21.53
2017-03-11T02:23:15.655Z,21.56
2017-03-11T02:23:56.292Z,21.51
2017-03-11T02:24:36.952Z,21.44
2017-03-11T02:25:17.593Z,21.45
2017-03-11T02:25:58.222Z,21.51
2017-03-11T02:26:38.876Z,21.42
2017-03-11T02:27:19.530Z,21.45
2017-03-11T02:28:00.162Z,21.42
2017-03-11T02:28:40.880Z,21.41
2017-03-11T02:29:21.521Z,21.42
2017-03-11T02:30:02.225Z,21.53
2017-03-11T02:30:42.873Z,21.53
2017-03-11T02:31:23.520Z,21.48
2017-03-11T02:32:04.156Z,21.42
2017-03-11T02:32:44.817Z,21.41
2017-03-11T02:33:25.447Z,21.53
2017-03-11T02:34:06.075Z,21.42
2017-03-11T02:34:46.695Z,21.44
2017-03-11T02:35:27.329Z,21.53
2017-03-11T02:36:07.956Z,21.56
2017-03-11T02:36:48.592Z,21.46
2017-03-11T02:37:29.225Z,21.44
2017-03-11T02:38:09.851Z,21.53
2017-03-11T02:38:50.565Z,21.45
2017-03-11T02:39:31.205Z,21.51
2017-03-11T02:40:11.846Z,21.45
2017-03-11T02:40:52.469Z,21.41
2017-03-11T02:41:33.122Z,21.46
2017-03-11T02:42:13.779Z,21.5
2017-03-11T02:42:54.533Z,21.48
2017-03-11T02:43:35.184Z,21.45
2017-03-11T02:44:15.844Z,21.41
2017-03-11T02:44:56.591Z,21.41
2017-03-11T02:45:37.247Z,21.44
2017-03-11T02:46:17.896Z,21.45
2017-03-11T02:46:58.552Z,21.45
2017-03-11T02:47:39.205Z,21.53
2017-03-11T02:48:19.889Z,21.48
2017-03-11T02:49:00.547Z,21.42
2017-03-11T02:49:41.195Z,21.51
2017-03-11T02:50:21.859Z,21.46
2017-03-11T02:51:02.479Z,21.44
2017-03-11T02:51:43.116Z,21.44
2017-03-11T02:52:23.779Z,21.38
2017-03-11T02:53:04.416Z,21.42
2017-03-11T02:53:45.043Z,21.5
2017-03-11T02:54:25.669Z,21.5
2017-03-11T02:55:06.296Z,21.45
2017-03-11T02:55:46.952Z,21.48
2017-03-11T02:56:27.613Z,21.51
2017-03-11T02:57:08.246Z,21.48
2017-03-11T02:57:48.896Z,21.44
2017-03-11T02:58:29.614Z,21.48
2017-03-11T02:59:10.257Z,21.42
2017-03-11T02:59:50.898Z,21.5
2017-03-11T03:00:31.522Z,21.53
2017-03-11T03:01:12.224Z,21.5
2017-03-11T03:01:52.866Z,21.44
2017-03-11T03:02:33.514Z,21.5
2017-03-11T03:03:14.156Z,21.46
2017-03-11T03:03:54.780Z,21.44
2017-03-11T03:04:35.424Z,21.51
2017-03-11T03:05:16.053Z,21.53
2017-03-11T03:05:56.692Z,21.44
2017-03-11T03:06:37.408Z,21.45
2017-03-11T03:07:18.040Z,21.45
2017-03-11T03:07:58.660Z,21.44
2017-03-11T03:08:39.298Z,21.46
2017-03-11T03:09:19.940Z,21.44
2017-03-11T03:10:00.568Z,21.46
2017-03-11T03:10:41.270Z,21.44
2017-03-11T03:11:21.900Z,21.36
2017-03-11T03:12:02.554Z,21.5
2017-03-11T03:12:43.157Z,21.41
2017-03-11T03:13:23.863Z,21.41
2017-03-11T03:14:04.523Z,21.44
2017-03-11T03:14:45.167Z,21.44
2017-03-11T03:15:25.816Z,21.46
2017-03-11T03:16:06.439Z,21.45
2017-03-11T03:16:47.179Z,21.35
2017-03-11T03:17:27.820Z,21.44
2017-03-11T03:18:08.440Z,21.44
2017-03-11T03:18:49.077Z,21.41
2017-03-11T03:19:29.706Z,21.42
2017-03-11T03:20:10.343Z,21.42
2017-03-11T03:20:50.998Z,21.45
2017-03-11T03:21:31.693Z,21.34
2017-03-11T03:22:12.319Z,21.36
2017-03-11T03:22:52.962Z,21.32
2017-03-11T03:23:33.591Z,21.44
2017-03-11T03:24:14.217Z,21.38
2017-03-11T03:24:54.863Z,21.41
2017-03-11T03:25:35.510Z,21.42
2017-03-11T03:26:16.136Z,21.44
2017-03-11T03:26:56.784Z,21.42
2017-03-11T03:27:37.474Z,21.36
2017-03-11T03:28:18.130Z,21.3
2017-03-11T03:28:58.781Z,21.34
2017-03-11T03:29:39.436Z,21.44
2017-03-11T03:30:20.080Z,21.44
2017-03-11T03:31:00.705Z,21.46
2017-03-11T03:31:41.341Z,21.5
2017-03-11T03:32:21.976Z,21.41
2017-03-11T03:33:02.614Z,21.34
2017-03-11T03:33:43.242Z,21.44
2017-03-11T03:34:23.900Z,21.38
2017-03-11T03:35:04.523Z,21.39
2017-03-11T03:35:45.161Z,21.39
2017-03-11T03:36:25.791Z,21.41
2017-03-11T03:37:06.425Z,21.42
2017-03-11T03:37:47.058Z,21.39
2017-03-11T03:38:27.703Z,21.32
2017-03-11T03:39:08.330Z,21.41
2017-03-11T03:39:48.957Z,21.39
2017-03-11T03:40:29.608Z,21.41
2017-03-11T03:41:10.257Z,21.36
2017-03-11T03:41:50.925Z,21.45
2017-03-11T03:42:31.561Z,21.46
2017-03-11T03:43:12.208Z,21.38
2017-03-11T03:43:52.959Z,21.36
2017-03-11T03:44:33.587Z,21.41
2017-03-11T03:45:14.216Z,21.42
2017-03-11T03:45:54.862Z,21.41
2017-03-11T03:46:35.472Z,21.44
2017-03-11T03:47:16.108Z,21.42
2017-03-11T03:47:56.752Z,21.39
2017-03-11T03:48:37.393Z,21.5
2017-03-11T03:49:18.030Z,21.42
2017-03-11T03:49:58.663Z,21.46
2017-03-11T03:50:39.300Z,21.48
2017-03-11T03:51:19.946Z,21.44
2017-03-11T03:52:00.571Z,21.45
2017-03-11T03:52:41.199Z,21.45
2017-03-11T03:53:21.852Z,21.36
2017-03-11T03:54:02.533Z,21.45
2017-03-11T03:54:43.185Z,21.42
2017-03-11T03:55:23.810Z,21.42
2017-03-11T03:56:04.547Z,21.35
2017-03-11T03:56:45.206Z,21.38
2017-03-11T03:57:25.851Z,21.48
2017-03-11T03:58:06.505Z,21.44
2017-03-11T03:58:47.100Z,21.46
2017-03-11T03:59:27.755Z,21.32
2017-03-11T04:00:08.366Z,21.41
2017-03-11T04:00:49.003Z,21.44
2017-03-11T04:01:29.630Z,21.42
2017-03-11T04:02:10.266Z,21.46
2017-03-11T04:02:50.894Z,21.46
2017-03-11T04:03:31.529Z,21.42
2017-03-11T04:04:12.261Z,21.39
2017-03-11T04:04:52.916Z,21.45
2017-03-11T04:05:33.551Z,21.48
2017-03-11T04:06:14.292Z,21.41
2017-03-11T04:06:54.951Z,21.41
2017-03-11T04:07:35.583Z,21.39
2017-03-11T04:08:16.261Z,21.36
2017-03-11T04:08:56.958Z,21.45
2017-03-11T04:09:37.588Z,21.45
2017-03-11T04:10:18.220Z,21.44
2017-03-11T04:10:58.863Z,21.45
2017-03-11T04:11:39.570Z,21.39
2017-03-11T04:12:20.205Z,21.36
2017-03-11T04:13:00.830Z,21.42
2017-03-11T04:13:41.486Z,21.29
2017-03-11T04:14:22.118Z,21.36
2017-03-11T04:15:02.795Z,21.32
2017-03-11T04:15:43.421Z,21.35
2017-03-11T04:16:24.047Z,21.39
2017-03-11T04:17:04.684Z,21.44
2017-03-11T04:17:45.314Z,21.44
2017-03-11T04:18:25.952Z,21.38
2017-03-11T04:19:06.588Z,21.34
2017-03-11T04:19:47.222Z,21.35
2017-03-11T04:20:27.847Z,21.38
2017-03-11T04:21:08.502Z,21.36
2017-03-11T04:21:49.151Z,21.34
2017-03-11T04:22:29.783Z,21.34
2017-03-11T04:23:10.438Z,21.38
2017-03-11T04:23:51.075Z,21.34
2017-03-11T04:24:31.712Z,21.39
2017-03-11T04:25:12.360Z,21.39
2017-03-11T04:25:53.030Z,21.38
2017-03-11T04:26:33.682Z,21.38
2017-03-11T04:27:14.333Z,21.34
2017-03-11T04:27:54.993Z,21.39
2017-03-11T04:28:35.634Z,21.41
2017-03-11T04:29:16.325Z,21.35
2017-03-11T04:29:56.968Z,21.35
2017-03-11T04:30:37.603Z,21.35
2017-03-11T04:31:18.259Z,21.3
2017-03-11T04:31:58.907Z,21.34
2017-03-11T04:32:39.552Z,21.36
2017-03-11T04:33:20.186Z,21.41
2017-03-11T04:34:00.822Z,21.38
2017-03-11T04:34:41.470Z,21.36
2017-03-11T04:35:22.087Z,21.34
2017-03-11T04:36:02.734Z,21.34
2017-03-11T04:36:43.378Z,21.41
2017-03-11T04:37:24.015Z,21.34
2017-03-11T04:38:04.646Z,21.34
2017-03-11T04:38:45.300Z,21.39
2017-03-11T04:39:25.930Z,21.34
2017-03-11T04:40:06.556Z,21.3
2017-03-11T04:40:47.193Z,21.45
2017-03-11T04:41:27.825Z,21.36
2017-03-11T04:42:08.453Z,21.39
2017-03-11T04:42:49.091Z,21.36
2017-03-11T04:43:29.727Z,21.34
2017-03-11T04:44:10.483Z,21.36
2017-03-11T04:44:51.116Z,21.41
2017-03-11T04:45:31.767Z,21.45
2017-03-11T04:46:12.493Z,21.42
2017-03-11T04:46:53.126Z,21.38
2017-03-11T04:47:33.758Z,21.45
2017-03-11T04:48:14.396Z,21.38
2017-03-11T04:48:55.030Z,21.44
2017-03-11T04:49:35.667Z,21.5
2017-03-11T04:50:16.382Z,21.41
2017-03-11T04:50:57.006Z,21.32
2017-03-11T04:51:37.635Z,21.32
2017-03-11T04:52:18.269Z,21.35
2017-03-11T04:52:59.014Z,21.42
2017-03-11T04:53:39.642Z,21.38
2017-03-11T04:54:20.276Z,21.36
2017-03-11T04:55:00.917Z,21.39
2017-03-11T04:55:41.564Z,21.34
2017-03-11T04:56:22.201Z,21.36
2017-03-11T04:57:02.853Z,21.34
2017-03-11T04:57:43.512Z,21.27
2017-03-11T04:58:24.152Z,21.34
2017-03-11T04:59:04.776Z,21.39
2017-03-11T04:59:45.417Z,21.36
2017-03-11T05:00:26.069Z,21.34
2017-03-11T05:01:06.747Z,21.36
2017-03-11T05:01:47.441Z,21.17
2017-03-11T05:02:28.021Z,21.27
2017-03-11T05:03:08.680Z,21.23
2017-03-11T05:03:49.335Z,21.27
2017-03-11T05:04:29.989Z,21.3
2017-03-11T05:05:10.623Z,21.34
2017-03-11T05:05:51.251Z,21.27
2017-03-11T05:06:31.881Z,21.16
2017-03-11T05:07:12.536Z,21.24
2017-03-11T05:07:53.160Z,21.3
2017-03-11T05:08:33.813Z,21.24
2017-03-11T05:09:14.454Z,21.26
2017-03-11T05:09:55.078Z,21.36
2017-03-11T05:10:35.720Z,21.3
2017-03-11T05:11:16.346Z,21.36
2017-03-11T05:11:56.992Z,21.2
2017-03-11T05:12:37.625Z,21.26
2017-03-11T05:13:18.289Z,21.27
2017-03-11T05:13:58.923Z,21.34
2017-03-11T05:14:39.559Z,21.27
2017-03-11T05:15:20.198Z,21.26
2017-03-11T05:16:00.853Z,21.21
2017-03-11T05:16:41.486Z,21.17
2017-03-11T05:17:22.143Z,21.19
2017-03-11T05:18:02.799Z,21.24
2017-03-11T05:18:43.465Z,21.17
2017-03-11T05:19:24.113Z,21.14
2017-03-11T05:20:04.757Z,21.2
2017-03-11T05:20:45.407Z,21.17
2017-03-11T05:21:26.044Z,21.19
2017-03-11T05:22:06.743Z,21.27
2017-03-11T05:22:47.378Z,21.26
2017-03-11T05:23:28.021Z,21.3
2017-03-11T05:24:08.655Z,21.34
2017-03-11T05:24:49.309Z,21.29
2017-03-11T05:25:29.935Z,21.29
2017-03-11T05:26:10.578Z,21.24
2017-03-11T05:26:51.213Z,21.26
2017-03-11T05:27:31.857Z,21.27
2017-03-11T05:28:12.506Z,21.29
2017-03-11T05:28:53.169Z,21.27
2017-03-11T05:29:33.797Z,21.3
2017-03-11T05:30:14.442Z,21.36
2017-03-11T05:30:55.084Z,21.29
2017-03-11T05:31:35.761Z,21.29
2017-03-11T05:32:16.411Z,21.27
2017-03-11T05:32:57.047Z,21.3
2017-03-11T05:33:37.716Z,21.19
2017-03-11T05:34:18.354Z,21.29
2017-03-11T05:34:58.982Z,21.21
2017-03-11T05:35:39.617Z,21.29
2017-03-11T05:36:20.257Z,21.27
2017-03-11T05:37:00.888Z,21.29
2017-03-11T05:37:41.541Z,21.19
2017-03-11T05:38:22.170Z,21.16
2017-03-11T05:39:02.813Z,21.23
2017-03-11T05:39:43.457Z,21.29
2017-03-11T05:40:24.094Z,21.3
2017-03-11T05:41:04.739Z,21.24
2017-03-11T05:41:45.539Z,21.29
2017-03-11T05:42:26.191Z,21.21
2017-03-11T05:43:06.826Z,21.3
2017-03-11T05:43:47.453Z,21.32
2017-03-11T05:44:28.086Z,21.29
2017-03-11T05:45:08.721Z,21.29
2017-03-11T05:45:49.351Z,21.27
2017-03-11T05:46:30.045Z,21.21
2017-03-11T05:47:10.688Z,21.3
2017-03-11T05:47:51.312Z,21.3
2017-03-11T05:48:32.039Z,21.3
2017-03-11T05:49:12.671Z,21.23
2017-03-11T05:49:53.333Z,21.21
2017-03-11T05:50:33.977Z,21.26
2017-03-11T05:51:14.619Z,21.24
2017-03-11T05:51:55.266Z,21.19
2017-03-11T05:52:35.919Z,21.3
2017-03-11T05:53:16.556Z,21.3
2017-03-11T05:53:57.198Z,21.24
2017-03-11T05:54:37.845Z,21.29
2017-03-11T05:55:18.499Z,21.36
2017-03-11T05:55:59.138Z,21.38
2017-03-11T05:56:39.792Z,21.3
2017-03-11T05:57:20.451Z,21.35
2017-03-11T05:58:01.110Z,21.34
2017-03-11T05:58:41.768Z,21.3
2017-03-11T05:59:22.429Z,21.27
2017-03-11T06:00:03.077Z,21.23
2017-03-11T06:00:43.715Z,21.26
2017-03-11T06:01:24.370Z,21.29
2017-03-11T06:02:05.007Z,21.34
2017-03-11T06:02:45.646Z,21.34
2017-03-11T06:03:26.300Z,21.36
2017-03-11T06:04:06.953Z,21.3
2017-03-11T06:04:47.579Z,21.32
2017-03-11T06:05:28.221Z,21.21
2017-03-11T06:06:08.868Z,21.3
2017-03-11T06:06:49.499Z,21.27
2017-03-11T06:07:30.151Z,21.35
2017-03-11T06:08:10.790Z,21.26
2017-03-11T06:08:51.422Z,21.36
2017-03-11T06:09:32.140Z,21.32
2017-03-11T06:10:12.802Z,21.3
2017-03-11T06:10:53.439Z,21.3
2017-03-11T06:11:34.085Z,21.34
2017-03-11T06:12:14.727Z,21.27
2017-03-11T06:12:55.374Z,21.29
2017-03-11T06:13:35.998Z,21.27
2017-03-11T06:14:16.615Z,21.34
2017-03-11T06:14:57.246Z,21.3
2017-03-11T06:15:37.887Z,21.26
2017-03-11T06:16:18.547Z,21.3
2017-03-11T06:16:59.199Z,21.32
2017-03-11T06:17:39.833Z,21.26
2017-03-11T06:18:20.480Z,21.26
2017-03-11T06:19:01.108Z,21.24
2017-03-11T06:19:41.769Z,21.26
2017-03-11T06:20:22.417Z,21.17
2017-03-11T06:21:03.110Z,21.24
2017-03-11T06:21:43.729Z,21.19
2017-03-11T06:22:24.358Z,21.17
2017-03-11T06:23:04.980Z,21.26
2017-03-11T06:23:45.622Z,21.21
2017-03-11T06:24:26.250Z,21.26
2017-03-11T06:25:06.875Z,21.2
2017-03-11T06:25:47.513Z,21.21
2017-03-11T06:26:28.162Z,21.24
2017-03-11T06:27:08.804Z,21.21
2017-03-11T06:27:49.452Z,21.2
2017-03-11T06:28:30.130Z,21.17
2017-03-11T06:29:10.753Z,21.21
2017-03-11T06:29:51.397Z,21.24
2017-03-11T06:30:32.046Z,21.21
2017-03-11T06:31:12.666Z,21.32
2017-03-11T06:31:53.306Z,21.19
2017-03-11T06:32:33.949Z,21.2
2017-03-11T06:33:14.572Z,21.2
2017-03-11T06:33:55.306Z,21.21
2017-03-11T06:34:35.933Z,21.26
2017-03-11T06:35:16.572Z,21.2
2017-03-11T06:35:57.208Z,21.23
2017-03-11T06:36:37.922Z,21.27
2017-03-11T06:37:18.561Z,21.17
2017-03-11T06:37:59.199Z,21.17
2017-03-11T06:38:39.833Z,21.2
2017-03-11T06:39:20.506Z,21.23
2017-03-11T06:40:01.149Z,21.17
2017-03-11T06:40:41.782Z,21.26
2017-03-11T06:41:22.423Z,21.19
2017-03-11T06:42:03.058Z,21.27
2017-03-11T06:42:43.693Z,21.2
2017-03-11T06:43:24.316Z,21.16
2017-03-11T06:44:04.960Z,21.19
2017-03-11T06:44:45.648Z,21.27
2017-03-11T06:45:26.278Z,21.19
2017-03-11T06:46:06.917Z,21.24
2017-03-11T06:46:47.543Z,21.17
2017-03-11T06:47:28.170Z,21.17
2017-03-11T06:48:08.821Z,21.14
2017-03-11T06:48:49.487Z,21.24
2017-03-11T06:49:30.137Z,21.27
2017-03-11T06:50:10.769Z,21.17
2017-03-11T06:50:51.397Z,21.24
2017-03-11T06:51:32.099Z,21.32
2017-03-11T06:52:12.747Z,21.19
2017-03-11T06:52:53.399Z,21.19
2017-03-11T06:53:34.107Z,21.24
2017-03-11T06:54:14.736Z,21.21
2017-03-11T06:54:55.372Z,21.23
2017-03-11T06:55:36.019Z,21.24
2017-03-11T06:56:16.672Z,21.16
2017-03-11T06:56:57.309Z,21.23
2017-03-11T06:57:37.997Z,21.21
2017-03-11T06:58:18.632Z,21.2
2017-03-11T06:58:59.266Z,21.2
2017-03-11T06:59:39.912Z,21.19
2017-03-11T07:00:20.538Z,21.19
2017-03-11T07:01:01.184Z,21.27
2017-03-11T07:01:41.831Z,21.23
2017-03-11T07:02:22.463Z,21.23
2017-03-11T07:03:03.092Z,21.24
2017-03-11T07:03:43.723Z,21.17
2017-03-11T07:04:24.360Z,21.26
2017-03-11T07:05:04.986Z,21.17
2017-03-11T07:05:45.626Z,21.17
2017-03-11T07:06:26.256Z,21.19
2017-03-11T07:07:06.900Z,21.19
2017-03-11T07:07:47.556Z,21.17
2017-03-11T07:08:28.207Z,21.23
2017-03-11T07:09:08.852Z,21.17
2017-03-11T07:09:49.510Z,21.19
2017-03-11T07:10:30.164Z,21.13
2017-03-11T07:11:10.806Z,21.19
2017-03-11T07:11:51.430Z,21.17
2017-03-11T07:12:32.087Z,21.14
2017-03-11T07:13:12.731Z,21.2
2017-03-11T07:13:53.362Z,21.17
2017-03-11T07:14:33.987Z,21.2
2017-03-11T07:15:14.654Z,21.14
2017-03-11T07:15:55.285Z,21.17
2017-03-11T07:16:35.917Z,21.19
2017-03-11T07:17:16.546Z,21.21
2017-03-11T07:17:57.180Z,21.21
2017-03-11T07:18:37.803Z,21.17
2017-03-11T07:19:18.433Z,21.21
2017-03-11T07:19:59.088Z,21.21
2017-03-11T07:20:39.712Z,21.2
2017-03-11T07:21:20.370Z,21.24
2017-03-11T07:22:01.009Z,21.17
2017-03-11T07:22:41.652Z,21.16
2017-03-11T07:23:22.301Z,21.19
2017-03-11T07:24:02.929Z,21.16
2017-03-11T07:24:43.570Z,21.17
2017-03-11T07:25:24.219Z,21.24
2017-03-11T07:26:04.859Z,21.2
2017-03-11T07:26:45.487Z,21.21
2017-03-11T07:27:26.122Z,21.2
2017-03-11T07:28:06.775Z,21.17
2017-03-11T07:28:47.424Z,21.21
2017-03-11T07:29:28.089Z,21.24
2017-03-11T07:30:08.728Z,21.14
2017-03-11T07:30:49.396Z,21.2
2017-03-11T07:31:30.012Z,21.21
2017-03-11T07:32:10.666Z,21.23
2017-03-11T07:32:51.309Z,21.24
2017-03-11T07:33:31.947Z,21.2
2017-03-11T07:34:12.571Z,21.13
2017-03-11T07:34:53.212Z,21.2
2017-03-11T07:35:33.840Z,21.21
2017-03-11T07:36:14.488Z,21.19
2017-03-11T07:36:55.123Z,21.21
2017-03-11T07:37:35.753Z,21.21
2017-03-11T07:38:16.448Z,21.19
2017-03-11T07:38:57.088Z,21.3
2017-03-11T07:39:37.743Z,21.17
2017-03-11T07:40:18.380Z,21.17
2017-03-11T07:40:59.028Z,21.23
2017-03-11T07:41:39.666Z,21.21
2017-03-11T07:42:20.366Z,21.17
2017-03-11T07:43:01.004Z,21.3
2017-03-11T07:43:41.645Z,21.2
2017-03-11T07:44:22.270Z,21.21
2017-03-11T07:45:02.910Z,21.24
2017-03-11T07:45:43.546Z,21.17
2017-03-11T07:46:24.195Z,21.19
2017-03-11T07:47:04.834Z,21.26
2017-03-11T07:47:45.495Z,21.29
2017-03-11T07:48:26.126Z,21.2
2017-03-11T07:49:06.794Z,21.2
2017-03-11T07:49:47.444Z,21.2
2017-03-11T07:50:28.088Z,21.19
2017-03-11T07:51:08.726Z,21.19
2017-03-11T07:51:49.367Z,21.17
2017-03-11T07:52:30.004Z,21.23
2017-03-11T07:53:10.644Z,21.17
2017-03-11T07:53:51.277Z,21.16
2017-03-11T07:54:31.899Z,21.16
2017-03-11T07:55:12.534Z,21.16
2017-03-11T07:55:53.176Z,21.16
2017-03-11T07:56:33.807Z,21.23
2017-03-11T07:57:14.444Z,21.27
2017-03-11T07:57:55.075Z,21.17
2017-03-11T07:58:35.712Z,21.23
2017-03-11T07:59:16.370Z,21.17
2017-03-11T07:59:57.018Z,21.14
2017-03-11T08:00:37.666Z,21.23
2017-03-11T08:01:18.289Z,21.14
2017-03-11T08:01:58.926Z,21.08
2017-03-11T08:02:39.561Z,21.05
2017-03-11T08:03:20.195Z,21.11
2017-03-11T08:04:00.825Z,21.09
2017-03-11T08:04:41.475Z,21.16
2017-03-11T08:05:22.100Z,21.09
2017-03-11T08:06:02.746Z,21.11
2017-03-11T08:06:43.395Z,21.06
2017-03-11T08:07:24.039Z,21.05
2017-03-11T08:08:04.674Z,21.13
2017-03-11T08:08:45.320Z,21.14
2017-03-11T08:09:25.949Z,21.14
2017-03-11T08:10:06.582Z,21.11
2017-03-11T08:10:47.212Z,21.09
2017-03-11T08:11:27.903Z,21.13
2017-03-11T08:12:08.548Z,21.14
2017-03-11T08:12:49.183Z,21.02
2017-03-11T08:13:29.822Z,21.06
2017-03-11T08:14:10.457Z,21.14
2017-03-11T08:14:51.079Z,21.01
2017-03-11T08:15:31.793Z,21.11
2017-03-11T08:16:12.438Z,21.04
2017-03-11T08:16:53.140Z,21.04
2017-03-11T08:17:33.789Z,21.05
2017-03-11T08:18:14.432Z,21.08
2017-03-11T08:18:55.088Z,21.09
2017-03-11T08:19:35.747Z,21.06
2017-03-11T08:20:16.474Z,21.06
2017-03-11T08:20:57.109Z,21.04
2017-03-11T08:21:37.741Z,21.06
2017-03-11T08:22:18.484Z,21.06
2017-03-11T08:22:59.118Z,21.09
2017-03-11T08:23:39.825Z,21.06
2017-03-11T08:24:20.478Z,21.05
2017-03-11T08:25:01.180Z,21.08
2017-03-11T08:25:41.748Z,21.04
2017-03-11T08:26:22.447Z,21.11
2017-03-11T08:27:03.088Z,21.13
2017-03-11T08:27:43.741Z,21.04
2017-03-11T08:28:24.460Z,21.06
2017-03-11T08:29:05.092Z,21.04
2017-03-11T08:29:45.745Z,20.99
2017-03-11T08:30:26.447Z,21.02
2017-03-11T08:31:07.077Z,21.01
2017-03-11T08:31:47.722Z,21.02
2017-03-11T08:32:28.362Z,20.96
2017-03-11T08:33:08.995Z,21.04
2017-03-11T08:33:49.628Z,21.09
2017-03-11T08:34:30.285Z,21.06
2017-03-11T08:35:10.918Z,21.06
2017-03-11T08:35:51.541Z,21.04
2017-03-11T08:36:32.198Z,21.05
2017-03-11T08:37:12.836Z,21.05
2017-03-11T08:37:53.475Z,21.01
2017-03-11T08:38:34.092Z,21.05
2017-03-11T08:39:14.735Z,21.05
2017-03-11T08:39:55.360Z,21.05
2017-03-11T08:40:36.000Z,21.08
2017-03-11T08:41:16.674Z,21.11
2017-03-11T08:41:57.307Z,21.11
2017-03-11T08:42:37.952Z,21.17
2017-03-11T08:43:18.596Z,21.11
2017-03-11T08:43:59.223Z,21.09
2017-03-11T08:44:39.873Z,21.08
2017-03-11T08:45:20.517Z,21.05